sensor_id;sensor_type;location;lat;lon;timestamp;P1;durP1;ratioP1;P2;durP2;ratioP2
6109;SDS011;3085;49.444;11.054;2022-11-20T00:00:15;14.20;;;7.07;;
6109;SDS011;3085;49.444;11.054;2022-11-20T00:02:42;27.33;;;7.30;;
6109;SDS011;3085;49.444;11.054;2022-11-20T00:05:09;17.00;;;7.67;;
6109;SDS011;3085;49.444;11.054;2022-11-20T00:07:36;18.80;;;7.13;;
6109;SDS011;3085;49.444;11.054;2022-11-20T00:10:04;15.20;;;7.37;;
6109;SDS011;3085;49.444;11.054;2022-11-20T00:12:32;13.30;;;6.70;;
6109;SDS011;3085;49.444;11.054;2022-11-20T00:14:58;16.57;;;8.90;;
6109;SDS011;3085;49.444;11.054;2022-11-20T00:17:25;15.87;;;7.43;;
6109;SDS011;3085;49.444;11.054;2022-11-20T00:19:52;14.40;;;6.70;;
6109;SDS011;3085;49.444;11.054;2022-11-20T00:22:19;14.90;;;7.10;;
6109;SDS011;3085;49.444;11.054;2022-11-20T00:24:46;17.57;;;8.57;;
6109;SDS011;3085;49.444;11.054;2022-11-20T00:27:14;19.90;;;8.17;;
6109;SDS011;3085;49.444;11.054;2022-11-20T00:29:41;23.77;;;7.90;;
6109;SDS011;3085;49.444;11.054;2022-11-20T00:32:07;19.27;;;7.60;;
6109;SDS011;3085;49.444;11.054;2022-11-20T00:34:34;13.43;;;7.20;;
6109;SDS011;3085;49.444;11.054;2022-11-20T00:37:01;21.00;;;7.93;;
6109;SDS011;3085;49.444;11.054;2022-11-20T00:39:28;16.47;;;7.50;;
6109;SDS011;3085;49.444;11.054;2022-11-20T00:41:55;18.97;;;6.70;;
6109;SDS011;3085;49.444;11.054;2022-11-20T00:44:23;16.80;;;7.47;;
6109;SDS011;3085;49.444;11.054;2022-11-20T00:46:49;24.43;;;9.60;;
6109;SDS011;3085;49.444;11.054;2022-11-20T00:49:16;16.67;;;7.40;;
6109;SDS011;3085;49.444;11.054;2022-11-20T00:51:43;16.90;;;7.17;;
6109;SDS011;3085;49.444;11.054;2022-11-20T00:54:10;21.53;;;8.07;;
6109;SDS011;3085;49.444;11.054;2022-11-20T00:56:36;16.30;;;7.43;;
6109;SDS011;3085;49.444;11.054;2022-11-20T00:59:03;19.23;;;8.57;;
6109;SDS011;3085;49.444;11.054;2022-11-20T01:01:32;15.33;;;7.50;;
6109;SDS011;3085;49.444;11.054;2022-11-20T01:03:59;20.57;;;8.27;;
6109;SDS011;3085;49.444;11.054;2022-11-20T01:06:27;16.27;;;8.53;;
6109;SDS011;3085;49.444;11.054;2022-11-20T01:08:56;18.57;;;7.57;;
6109;SDS011;3085;49.444;11.054;2022-11-20T01:11:25;20.50;;;9.70;;
6109;SDS011;3085;49.444;11.054;2022-11-20T01:13:53;31.80;;;8.87;;
6109;SDS011;3085;49.444;11.054;2022-11-20T01:16:23;26.17;;;9.33;;
6109;SDS011;3085;49.444;11.054;2022-11-20T01:18:52;15.67;;;8.57;;
6109;SDS011;3085;49.444;11.054;2022-11-20T01:21:22;16.77;;;7.60;;
6109;SDS011;3085;49.444;11.054;2022-11-20T01:23:50;27.00;;;8.90;;
6109;SDS011;3085;49.444;11.054;2022-11-20T01:26:20;19.27;;;8.80;;
6109;SDS011;3085;49.444;11.054;2022-11-20T01:28:48;15.87;;;8.30;;
6109;SDS011;3085;49.444;11.054;2022-11-20T01:31:16;18.67;;;8.33;;
6109;SDS011;3085;49.444;11.054;2022-11-20T01:33:45;21.60;;;8.33;;
6109;SDS011;3085;49.444;11.054;2022-11-20T01:36:14;19.97;;;8.53;;
6109;SDS011;3085;49.444;11.054;2022-11-20T01:38:42;17.30;;;8.53;;
6109;SDS011;3085;49.444;11.054;2022-11-20T01:41:09;24.23;;;9.23;;
6109;SDS011;3085;49.444;11.054;2022-11-20T01:43:58;17.00;;;8.03;;
6109;SDS011;3085;49.444;11.054;2022-11-20T01:46:25;26.53;;;9.10;;
6109;SDS011;3085;49.444;11.054;2022-11-20T01:48:53;15.70;;;7.73;;
6109;SDS011;3085;49.444;11.054;2022-11-20T01:51:28;16.43;;;8.57;;
6109;SDS011;3085;49.444;11.054;2022-11-20T01:53:57;17.50;;;7.20;;
6109;SDS011;3085;49.444;11.054;2022-11-20T01:56:28;17.20;;;8.00;;
6109;SDS011;3085;49.444;11.054;2022-11-20T01:58:58;19.37;;;7.13;;
6109;SDS011;3085;49.444;11.054;2022-11-20T02:01:27;19.53;;;7.90;;
6109;SDS011;3085;49.444;11.054;2022-11-20T02:03:54;14.90;;;7.20;;
6109;SDS011;3085;49.444;11.054;2022-11-20T02:06:22;20.90;;;7.33;;
6109;SDS011;3085;49.444;11.054;2022-11-20T02:08:52;18.60;;;8.67;;
6109;SDS011;3085;49.444;11.054;2022-11-20T02:11:20;22.83;;;8.27;;
6109;SDS011;3085;49.444;11.054;2022-11-20T02:13:47;23.30;;;8.47;;
6109;SDS011;3085;49.444;11.054;2022-11-20T02:16:19;19.23;;;7.33;;
6109;SDS011;3085;49.444;11.054;2022-11-20T02:18:48;14.63;;;7.10;;
6109;SDS011;3085;49.444;11.054;2022-11-20T02:21:27;18.17;;;7.53;;
6109;SDS011;3085;49.444;11.054;2022-11-20T02:24:04;26.73;;;8.80;;
6109;SDS011;3085;49.444;11.054;2022-11-20T02:26:38;22.80;;;8.30;;
6109;SDS011;3085;49.444;11.054;2022-11-20T02:29:12;12.97;;;6.67;;
6109;SDS011;3085;49.444;11.054;2022-11-20T02:31:42;19.73;;;8.90;;
6109;SDS011;3085;49.444;11.054;2022-11-20T02:34:09;21.97;;;8.93;;
6109;SDS011;3085;49.444;11.054;2022-11-20T02:36:37;15.87;;;7.53;;
6109;SDS011;3085;49.444;11.054;2022-11-20T02:39:08;24.57;;;10.00;;
6109;SDS011;3085;49.444;11.054;2022-11-20T02:41:37;17.90;;;7.90;;
6109;SDS011;3085;49.444;11.054;2022-11-20T02:44:05;19.57;;;7.20;;
6109;SDS011;3085;49.444;11.054;2022-11-20T02:46:32;24.27;;;9.03;;
6109;SDS011;3085;49.444;11.054;2022-11-20T02:49:00;23.90;;;9.43;;
6109;SDS011;3085;49.444;11.054;2022-11-20T02:51:27;20.80;;;8.50;;
6109;SDS011;3085;49.444;11.054;2022-11-20T02:53:54;22.27;;;8.30;;
6109;SDS011;3085;49.444;11.054;2022-11-20T02:56:23;22.17;;;9.03;;
6109;SDS011;3085;49.444;11.054;2022-11-20T02:58:50;22.57;;;9.20;;
6109;SDS011;3085;49.444;11.054;2022-11-20T03:01:16;20.23;;;8.83;;
6109;SDS011;3085;49.444;11.054;2022-11-20T03:03:43;17.17;;;7.97;;
6109;SDS011;3085;49.444;11.054;2022-11-20T03:06:10;24.53;;;9.77;;
6109;SDS011;3085;49.444;11.054;2022-11-20T03:08:37;22.73;;;8.90;;
6109;SDS011;3085;49.444;11.054;2022-11-20T03:11:04;16.97;;;8.13;;
6109;SDS011;3085;49.444;11.054;2022-11-20T03:13:34;27.93;;;9.43;;
6109;SDS011;3085;49.444;11.054;2022-11-20T03:18:36;18.37;;;8.97;;
6109;SDS011;3085;49.444;11.054;2022-11-20T03:21:03;19.10;;;8.03;;
6109;SDS011;3085;49.444;11.054;2022-11-20T03:23:31;21.47;;;8.50;;
6109;SDS011;3085;49.444;11.054;2022-11-20T03:26:08;23.00;;;7.40;;
6109;SDS011;3085;49.444;11.054;2022-11-20T03:28:37;15.60;;;8.60;;
6109;SDS011;3085;49.444;11.054;2022-11-20T03:31:05;23.20;;;7.47;;
6109;SDS011;3085;49.444;11.054;2022-11-20T03:33:33;20.83;;;8.50;;
6109;SDS011;3085;49.444;11.054;2022-11-20T03:36:00;19.07;;;8.77;;
6109;SDS011;3085;49.444;11.054;2022-11-20T03:38:29;17.43;;;7.90;;
6109;SDS011;3085;49.444;11.054;2022-11-20T03:41:00;21.37;;;7.93;;
6109;SDS011;3085;49.444;11.054;2022-11-20T03:43:28;22.50;;;8.50;;
6109;SDS011;3085;49.444;11.054;2022-11-20T03:45:56;21.27;;;8.80;;
6109;SDS011;3085;49.444;11.054;2022-11-20T03:48:23;19.77;;;7.50;;
6109;SDS011;3085;49.444;11.054;2022-11-20T03:50:50;21.13;;;7.70;;
6109;SDS011;3085;49.444;11.054;2022-11-20T03:53:18;16.70;;;6.30;;
6109;SDS011;3085;49.444;11.054;2022-11-20T03:55:45;18.00;;;8.00;;
6109;SDS011;3085;49.444;11.054;2022-11-20T03:58:17;18.70;;;8.00;;
6109;SDS011;3085;49.444;11.054;2022-11-20T04:00:44;17.87;;;8.40;;
6109;SDS011;3085;49.444;11.054;2022-11-20T04:03:13;21.93;;;9.10;;
6109;SDS011;3085;49.444;11.054;2022-11-20T04:05:40;14.37;;;6.33;;
6109;SDS011;3085;49.444;11.054;2022-11-20T04:08:07;15.17;;;7.30;;
6109;SDS011;3085;49.444;11.054;2022-11-20T04:10:34;15.40;;;6.90;;
6109;SDS011;3085;49.444;11.054;2022-11-20T04:13:01;19.90;;;7.00;;
6109;SDS011;3085;49.444;11.054;2022-11-20T04:15:28;22.40;;;6.20;;
6109;SDS011;3085;49.444;11.054;2022-11-20T04:17:55;24.00;;;7.07;;
6109;SDS011;3085;49.444;11.054;2022-11-20T04:20:23;15.67;;;6.40;;
6109;SDS011;3085;49.444;11.054;2022-11-20T04:22:52;15.20;;;7.17;;
6109;SDS011;3085;49.444;11.054;2022-11-20T04:25:20;15.20;;;7.43;;
6109;SDS011;3085;49.444;11.054;2022-11-20T04:27:47;15.00;;;7.00;;
6109;SDS011;3085;49.444;11.054;2022-11-20T04:30:13;13.07;;;7.03;;
6109;SDS011;3085;49.444;11.054;2022-11-20T04:32:40;17.20;;;7.10;;
6109;SDS011;3085;49.444;11.054;2022-11-20T04:35:07;18.70;;;8.70;;
6109;SDS011;3085;49.444;11.054;2022-11-20T04:37:36;23.37;;;8.73;;
6109;SDS011;3085;49.444;11.054;2022-11-20T04:40:03;18.57;;;8.20;;
6109;SDS011;3085;49.444;11.054;2022-11-20T04:42:30;18.30;;;7.53;;
6109;SDS011;3085;49.444;11.054;2022-11-20T04:44:57;18.03;;;7.57;;
6109;SDS011;3085;49.444;11.054;2022-11-20T04:47:24;23.77;;;8.40;;
6109;SDS011;3085;49.444;11.054;2022-11-20T04:49:51;16.93;;;8.30;;
6109;SDS011;3085;49.444;11.054;2022-11-20T04:52:18;14.23;;;6.60;;
6109;SDS011;3085;49.444;11.054;2022-11-20T04:54:46;18.83;;;7.43;;
6109;SDS011;3085;49.444;11.054;2022-11-20T04:57:14;18.30;;;8.40;;
6109;SDS011;3085;49.444;11.054;2022-11-20T04:59:41;22.20;;;9.00;;
6109;SDS011;3085;49.444;11.054;2022-11-20T05:02:09;18.17;;;6.60;;
6109;SDS011;3085;49.444;11.054;2022-11-20T05:04:36;14.57;;;6.80;;
6109;SDS011;3085;49.444;11.054;2022-11-20T05:07:03;16.93;;;7.27;;
6109;SDS011;3085;49.444;11.054;2022-11-20T05:09:30;19.33;;;6.80;;
6109;SDS011;3085;49.444;11.054;2022-11-20T05:11:58;16.70;;;7.60;;
6109;SDS011;3085;49.444;11.054;2022-11-20T05:14:25;15.57;;;6.60;;
6109;SDS011;3085;49.444;11.054;2022-11-20T05:16:52;19.17;;;6.07;;
6109;SDS011;3085;49.444;11.054;2022-11-20T05:19:19;17.47;;;6.60;;
6109;SDS011;3085;49.444;11.054;2022-11-20T05:21:46;17.30;;;6.80;;
6109;SDS011;3085;49.444;11.054;2022-11-20T05:24:12;19.63;;;7.87;;
6109;SDS011;3085;49.444;11.054;2022-11-20T05:26:39;15.87;;;7.40;;
6109;SDS011;3085;49.444;11.054;2022-11-20T05:29:09;14.63;;;6.40;;
6109;SDS011;3085;49.444;11.054;2022-11-20T05:31:36;15.47;;;6.97;;
6109;SDS011;3085;49.444;11.054;2022-11-20T05:34:04;15.10;;;6.17;;
6109;SDS011;3085;49.444;11.054;2022-11-20T05:36:31;14.10;;;6.50;;
6109;SDS011;3085;49.444;11.054;2022-11-20T05:38:58;15.27;;;7.10;;
6109;SDS011;3085;49.444;11.054;2022-11-20T05:41:25;17.97;;;5.90;;
6109;SDS011;3085;49.444;11.054;2022-11-20T05:43:51;17.23;;;6.23;;
6109;SDS011;3085;49.444;11.054;2022-11-20T05:46:20;14.60;;;6.27;;
6109;SDS011;3085;49.444;11.054;2022-11-20T05:48:47;18.13;;;6.83;;
6109;SDS011;3085;49.444;11.054;2022-11-20T05:51:14;18.10;;;8.17;;
6109;SDS011;3085;49.444;11.054;2022-11-20T05:53:43;12.97;;;6.37;;
6109;SDS011;3085;49.444;11.054;2022-11-20T05:56:11;9.17;;;5.27;;
6109;SDS011;3085;49.444;11.054;2022-11-20T05:58:40;14.53;;;6.90;;
6109;SDS011;3085;49.444;11.054;2022-11-20T06:01:08;21.80;;;7.70;;
6109;SDS011;3085;49.444;11.054;2022-11-20T06:03:37;25.30;;;7.60;;
6109;SDS011;3085;49.444;11.054;2022-11-20T06:06:06;14.47;;;6.20;;
6109;SDS011;3085;49.444;11.054;2022-11-20T06:08:33;14.43;;;6.30;;
6109;SDS011;3085;49.444;11.054;2022-11-20T06:11:02;20.40;;;6.40;;
6109;SDS011;3085;49.444;11.054;2022-11-20T06:13:29;22.17;;;7.67;;
6109;SDS011;3085;49.444;11.054;2022-11-20T06:15:56;15.17;;;6.67;;
6109;SDS011;3085;49.444;11.054;2022-11-20T06:18:25;15.77;;;6.60;;
6109;SDS011;3085;49.444;11.054;2022-11-20T06:21:00;11.43;;;5.90;;
6109;SDS011;3085;49.444;11.054;2022-11-20T06:23:28;14.80;;;7.07;;
6109;SDS011;3085;49.444;11.054;2022-11-20T06:25:55;15.03;;;7.97;;
6109;SDS011;3085;49.444;11.054;2022-11-20T06:28:22;18.83;;;7.73;;
6109;SDS011;3085;49.444;11.054;2022-11-20T06:30:49;13.27;;;6.83;;
6109;SDS011;3085;49.444;11.054;2022-11-20T06:33:15;19.70;;;7.37;;
6109;SDS011;3085;49.444;11.054;2022-11-20T06:35:42;20.17;;;7.47;;
6109;SDS011;3085;49.444;11.054;2022-11-20T06:38:10;17.30;;;8.13;;
6109;SDS011;3085;49.444;11.054;2022-11-20T06:40:39;11.47;;;5.77;;
6109;SDS011;3085;49.444;11.054;2022-11-20T06:43:07;16.73;;;5.80;;
6109;SDS011;3085;49.444;11.054;2022-11-20T06:45:34;14.70;;;8.70;;
6109;SDS011;3085;49.444;11.054;2022-11-20T06:48:01;13.43;;;5.60;;
6109;SDS011;3085;49.444;11.054;2022-11-20T06:50:28;14.40;;;5.63;;
6109;SDS011;3085;49.444;11.054;2022-11-20T06:52:55;23.53;;;6.27;;
6109;SDS011;3085;49.444;11.054;2022-11-20T06:55:23;12.43;;;7.03;;
6109;SDS011;3085;49.444;11.054;2022-11-20T06:57:50;15.50;;;6.10;;
6109;SDS011;3085;49.444;11.054;2022-11-20T07:00:17;16.53;;;6.87;;
6109;SDS011;3085;49.444;11.054;2022-11-20T07:02:44;16.90;;;6.57;;
6109;SDS011;3085;49.444;11.054;2022-11-20T07:05:11;15.43;;;6.53;;
6109;SDS011;3085;49.444;11.054;2022-11-20T07:07:39;13.77;;;6.70;;
6109;SDS011;3085;49.444;11.054;2022-11-20T07:10:06;16.60;;;6.80;;
6109;SDS011;3085;49.444;11.054;2022-11-20T07:12:35;12.63;;;6.10;;
6109;SDS011;3085;49.444;11.054;2022-11-20T07:15:02;12.70;;;6.60;;
6109;SDS011;3085;49.444;11.054;2022-11-20T07:17:30;14.10;;;5.70;;
6109;SDS011;3085;49.444;11.054;2022-11-20T07:19:57;12.97;;;5.30;;
6109;SDS011;3085;49.444;11.054;2022-11-20T07:22:23;13.37;;;6.07;;
6109;SDS011;3085;49.444;11.054;2022-11-20T07:24:51;12.93;;;6.40;;
6109;SDS011;3085;49.444;11.054;2022-11-20T07:27:18;20.37;;;6.10;;
6109;SDS011;3085;49.444;11.054;2022-11-20T07:29:46;17.10;;;6.90;;
6109;SDS011;3085;49.444;11.054;2022-11-20T07:32:13;11.83;;;5.97;;
6109;SDS011;3085;49.444;11.054;2022-11-20T07:34:40;12.30;;;6.10;;
6109;SDS011;3085;49.444;11.054;2022-11-20T07:37:09;16.30;;;6.30;;
6109;SDS011;3085;49.444;11.054;2022-11-20T07:39:36;13.87;;;6.60;;
6109;SDS011;3085;49.444;11.054;2022-11-20T07:42:03;17.77;;;7.50;;
6109;SDS011;3085;49.444;11.054;2022-11-20T07:44:30;21.97;;;7.20;;
6109;SDS011;3085;49.444;11.054;2022-11-20T07:46:59;11.57;;;5.60;;
6109;SDS011;3085;49.444;11.054;2022-11-20T07:49:26;17.07;;;6.93;;
6109;SDS011;3085;49.444;11.054;2022-11-20T07:51:53;12.40;;;6.57;;
6109;SDS011;3085;49.444;11.054;2022-11-20T07:54:20;11.43;;;5.90;;
6109;SDS011;3085;49.444;11.054;2022-11-20T07:56:47;10.43;;;5.33;;
6109;SDS011;3085;49.444;11.054;2022-11-20T07:59:15;10.10;;;5.57;;
6109;SDS011;3085;49.444;11.054;2022-11-20T08:01:42;15.60;;;6.20;;
6109;SDS011;3085;49.444;11.054;2022-11-20T08:04:10;12.93;;;6.00;;
6109;SDS011;3085;49.444;11.054;2022-11-20T08:06:37;11.67;;;6.00;;
6109;SDS011;3085;49.444;11.054;2022-11-20T08:09:04;12.53;;;5.90;;
6109;SDS011;3085;49.444;11.054;2022-11-20T08:11:31;14.73;;;6.50;;
6109;SDS011;3085;49.444;11.054;2022-11-20T08:14:15;21.40;;;7.70;;
6109;SDS011;3085;49.444;11.054;2022-11-20T08:16:42;10.97;;;5.70;;
6109;SDS011;3085;49.444;11.054;2022-11-20T08:19:12;15.63;;;6.33;;
6109;SDS011;3085;49.444;11.054;2022-11-20T08:21:40;22.03;;;6.40;;
6109;SDS011;3085;49.444;11.054;2022-11-20T08:24:07;10.93;;;5.63;;
6109;SDS011;3085;49.444;11.054;2022-11-20T08:26:35;14.33;;;6.80;;
6109;SDS011;3085;49.444;11.054;2022-11-20T08:29:06;10.53;;;5.13;;
6109;SDS011;3085;49.444;11.054;2022-11-20T08:31:34;15.53;;;6.43;;
6109;SDS011;3085;49.444;11.054;2022-11-20T08:34:01;12.57;;;5.80;;
6109;SDS011;3085;49.444;11.054;2022-11-20T08:36:32;12.47;;;6.37;;
6109;SDS011;3085;49.444;11.054;2022-11-20T08:38:59;15.60;;;6.57;;
6109;SDS011;3085;49.444;11.054;2022-11-20T08:41:26;17.43;;;6.63;;
6109;SDS011;3085;49.444;11.054;2022-11-20T08:43:58;15.07;;;5.67;;
6109;SDS011;3085;49.444;11.054;2022-11-20T08:46:31;20.60;;;6.93;;
6109;SDS011;3085;49.444;11.054;2022-11-20T08:49:01;19.07;;;7.27;;
6109;SDS011;3085;49.444;11.054;2022-11-20T08:51:30;17.90;;;6.77;;
6109;SDS011;3085;49.444;11.054;2022-11-20T08:53:58;17.40;;;7.20;;
6109;SDS011;3085;49.444;11.054;2022-11-20T08:56:25;14.60;;;6.30;;
6109;SDS011;3085;49.444;11.054;2022-11-20T08:58:52;13.67;;;5.07;;
6109;SDS011;3085;49.444;11.054;2022-11-20T09:01:19;14.23;;;5.57;;
6109;SDS011;3085;49.444;11.054;2022-11-20T09:03:48;11.37;;;6.10;;
6109;SDS011;3085;49.444;11.054;2022-11-20T09:06:18;18.50;;;5.90;;
6109;SDS011;3085;49.444;11.054;2022-11-20T09:08:48;15.27;;;7.50;;
6109;SDS011;3085;49.444;11.054;2022-11-20T09:11:32;10.07;;;4.60;;
6109;SDS011;3085;49.444;11.054;2022-11-20T09:14:00;14.07;;;4.90;;
6109;SDS011;3085;49.444;11.054;2022-11-20T09:16:27;13.13;;;6.00;;
6109;SDS011;3085;49.444;11.054;2022-11-20T09:18:54;17.93;;;6.70;;
6109;SDS011;3085;49.444;11.054;2022-11-20T09:21:21;12.80;;;5.70;;
6109;SDS011;3085;49.444;11.054;2022-11-20T09:23:51;14.30;;;5.20;;
6109;SDS011;3085;49.444;11.054;2022-11-20T09:26:17;13.60;;;5.97;;
6109;SDS011;3085;49.444;11.054;2022-11-20T09:28:44;13.40;;;6.87;;
6109;SDS011;3085;49.444;11.054;2022-11-20T09:31:14;15.50;;;5.77;;
6109;SDS011;3085;49.444;11.054;2022-11-20T09:33:47;12.00;;;5.50;;
6109;SDS011;3085;49.444;11.054;2022-11-20T09:36:14;14.77;;;6.70;;
6109;SDS011;3085;49.444;11.054;2022-11-20T09:38:41;18.10;;;6.97;;
6109;SDS011;3085;49.444;11.054;2022-11-20T09:41:17;12.17;;;5.10;;
6109;SDS011;3085;49.444;11.054;2022-11-20T09:43:57;16.53;;;6.27;;
6109;SDS011;3085;49.444;11.054;2022-11-20T09:46:33;16.40;;;6.40;;
6109;SDS011;3085;49.444;11.054;2022-11-20T09:49:14;13.77;;;5.80;;
6109;SDS011;3085;49.444;11.054;2022-11-20T09:51:51;7.60;;;4.77;;
6109;SDS011;3085;49.444;11.054;2022-11-20T09:54:27;12.20;;;5.97;;
6109;SDS011;3085;49.444;11.054;2022-11-20T09:57:05;8.67;;;4.50;;
6109;SDS011;3085;49.444;11.054;2022-11-20T09:59:38;12.90;;;5.47;;
6109;SDS011;3085;49.444;11.054;2022-11-20T10:02:14;13.33;;;6.33;;
6109;SDS011;3085;49.444;11.054;2022-11-20T10:04:49;16.23;;;6.07;;
6109;SDS011;3085;49.444;11.054;2022-11-20T10:07:21;11.03;;;6.00;;
6109;SDS011;3085;49.444;11.054;2022-11-20T10:09:54;13.00;;;5.30;;
6109;SDS011;3085;49.444;11.054;2022-11-20T10:12:25;13.10;;;5.80;;
6109;SDS011;3085;49.444;11.054;2022-11-20T10:18:00;13.90;;;5.10;;
6109;SDS011;3085;49.444;11.054;2022-11-20T10:20:38;11.00;;;5.83;;
6109;SDS011;3085;49.444;11.054;2022-11-20T10:26:01;10.97;;;4.90;;
6109;SDS011;3085;49.444;11.054;2022-11-20T10:28:37;15.47;;;6.37;;
6109;SDS011;3085;49.444;11.054;2022-11-20T10:31:17;13.13;;;5.50;;
6109;SDS011;3085;49.444;11.054;2022-11-20T10:33:53;13.07;;;5.30;;
6109;SDS011;3085;49.444;11.054;2022-11-20T10:36:24;16.37;;;6.07;;
6109;SDS011;3085;49.444;11.054;2022-11-20T10:38:54;12.33;;;6.17;;
6109;SDS011;3085;49.444;11.054;2022-11-20T10:41:27;9.00;;;5.40;;
6109;SDS011;3085;49.444;11.054;2022-11-20T10:44:03;14.13;;;5.60;;
6109;SDS011;3085;49.444;11.054;2022-11-20T10:46:37;11.60;;;6.40;;
6109;SDS011;3085;49.444;11.054;2022-11-20T10:49:11;11.40;;;6.23;;
6109;SDS011;3085;49.444;11.054;2022-11-20T10:51:46;12.77;;;6.23;;
6109;SDS011;3085;49.444;11.054;2022-11-20T10:54:24;19.43;;;5.87;;
6109;SDS011;3085;49.444;11.054;2022-11-20T10:57:00;17.07;;;6.30;;
6109;SDS011;3085;49.444;11.054;2022-11-20T11:02:31;18.53;;;6.17;;
6109;SDS011;3085;49.444;11.054;2022-11-20T11:05:01;14.83;;;6.10;;
6109;SDS011;3085;49.444;11.054;2022-11-20T11:07:36;15.20;;;6.30;;
6109;SDS011;3085;49.444;11.054;2022-11-20T11:10:12;13.57;;;6.60;;
6109;SDS011;3085;49.444;11.054;2022-11-20T11:12:43;16.00;;;7.07;;
6109;SDS011;3085;49.444;11.054;2022-11-20T11:15:14;14.70;;;6.27;;
6109;SDS011;3085;49.444;11.054;2022-11-20T11:17:51;17.17;;;7.13;;
6109;SDS011;3085;49.444;11.054;2022-11-20T11:20:19;15.27;;;6.90;;
6109;SDS011;3085;49.444;11.054;2022-11-20T11:22:48;20.20;;;8.30;;
6109;SDS011;3085;49.444;11.054;2022-11-20T11:25:24;17.23;;;7.80;;
6109;SDS011;3085;49.444;11.054;2022-11-20T11:27:54;15.60;;;7.23;;
6109;SDS011;3085;49.444;11.054;2022-11-20T11:30:24;21.00;;;8.10;;
6109;SDS011;3085;49.444;11.054;2022-11-20T11:33:02;18.97;;;6.80;;
6109;SDS011;3085;49.444;11.054;2022-11-20T11:35:30;10.13;;;5.20;;
6109;SDS011;3085;49.444;11.054;2022-11-20T11:38:02;9.33;;;5.33;;
6109;SDS011;3085;49.444;11.054;2022-11-20T11:40:31;11.50;;;6.90;;
6109;SDS011;3085;49.444;11.054;2022-11-20T11:42:59;10.23;;;5.70;;
6109;SDS011;3085;49.444;11.054;2022-11-20T11:45:30;12.23;;;4.93;;
6109;SDS011;3085;49.444;11.054;2022-11-20T11:47:57;11.87;;;5.50;;
6109;SDS011;3085;49.444;11.054;2022-11-20T11:50:27;15.27;;;5.03;;
6109;SDS011;3085;49.444;11.054;2022-11-20T11:52:58;9.73;;;5.60;;
6109;SDS011;3085;49.444;11.054;2022-11-20T11:55:31;19.23;;;7.07;;
6109;SDS011;3085;49.444;11.054;2022-11-20T11:58:06;12.97;;;5.23;;
6109;SDS011;3085;49.444;11.054;2022-11-20T12:00:47;11.43;;;5.00;;
6109;SDS011;3085;49.444;11.054;2022-11-20T12:03:21;9.00;;;4.77;;
6109;SDS011;3085;49.444;11.054;2022-11-20T12:05:55;10.57;;;5.87;;
6109;SDS011;3085;49.444;11.054;2022-11-20T12:08:26;9.80;;;4.13;;
6109;SDS011;3085;49.444;11.054;2022-11-20T12:10:59;10.03;;;4.90;;
6109;SDS011;3085;49.444;11.054;2022-11-20T12:13:34;10.73;;;4.30;;
6109;SDS011;3085;49.444;11.054;2022-11-20T12:16:10;12.03;;;4.87;;
6109;SDS011;3085;49.444;11.054;2022-11-20T12:18:38;13.83;;;4.60;;
6109;SDS011;3085;49.444;11.054;2022-11-20T12:21:09;11.60;;;4.70;;
6109;SDS011;3085;49.444;11.054;2022-11-20T12:23:47;10.70;;;5.07;;
6109;SDS011;3085;49.444;11.054;2022-11-20T12:26:32;12.17;;;5.17;;
6109;SDS011;3085;49.444;11.054;2022-11-20T12:29:10;10.23;;;5.10;;
6109;SDS011;3085;49.444;11.054;2022-11-20T12:31:51;8.73;;;4.50;;
6109;SDS011;3085;49.444;11.054;2022-11-20T12:34:41;8.27;;;4.60;;
6109;SDS011;3085;49.444;11.054;2022-11-20T12:37:16;8.03;;;4.60;;
6109;SDS011;3085;49.444;11.054;2022-11-20T12:39:56;6.83;;;4.50;;
6109;SDS011;3085;49.444;11.054;2022-11-20T12:42:37;11.00;;;5.53;;
6109;SDS011;3085;49.444;11.054;2022-11-20T12:45:35;7.33;;;4.03;;
6109;SDS011;3085;49.444;11.054;2022-11-20T12:48:38;9.00;;;4.50;;
6109;SDS011;3085;49.444;11.054;2022-11-20T12:51:32;9.57;;;4.70;;
6109;SDS011;3085;49.444;11.054;2022-11-20T12:54:26;9.50;;;4.40;;
6109;SDS011;3085;49.444;11.054;2022-11-20T12:57:14;9.23;;;4.33;;
6109;SDS011;3085;49.444;11.054;2022-11-20T13:02:53;6.13;;;3.70;;
6109;SDS011;3085;49.444;11.054;2022-11-20T13:05:43;10.43;;;5.20;;
6109;SDS011;3085;49.444;11.054;2022-11-20T13:08:19;7.23;;;4.00;;
6109;SDS011;3085;49.444;11.054;2022-11-20T13:10:49;7.43;;;3.47;;
6109;SDS011;3085;49.444;11.054;2022-11-20T13:13:22;5.17;;;2.73;;
6109;SDS011;3085;49.444;11.054;2022-11-20T13:15:55;8.33;;;3.90;;
6109;SDS011;3085;49.444;11.054;2022-11-20T13:18:24;8.00;;;4.87;;
6109;SDS011;3085;49.444;11.054;2022-11-20T13:20:53;9.53;;;4.27;;
6109;SDS011;3085;49.444;11.054;2022-11-20T13:23:23;11.37;;;5.23;;
6109;SDS011;3085;49.444;11.054;2022-11-20T13:26:02;7.13;;;4.10;;
6109;SDS011;3085;49.444;11.054;2022-11-20T13:28:31;9.50;;;4.60;;
6109;SDS011;3085;49.444;11.054;2022-11-20T13:30:58;7.50;;;4.60;;
6109;SDS011;3085;49.444;11.054;2022-11-20T13:33:27;5.70;;;3.33;;
6109;SDS011;3085;49.444;11.054;2022-11-20T13:35:58;12.13;;;5.97;;
6109;SDS011;3085;49.444;11.054;2022-11-20T13:38:26;6.27;;;3.43;;
6109;SDS011;3085;49.444;11.054;2022-11-20T13:40:54;8.47;;;3.70;;
6109;SDS011;3085;49.444;11.054;2022-11-20T13:43:23;6.90;;;4.60;;
6109;SDS011;3085;49.444;11.054;2022-11-20T13:45:55;7.80;;;3.53;;
6109;SDS011;3085;49.444;11.054;2022-11-20T13:48:24;8.73;;;4.47;;
6109;SDS011;3085;49.444;11.054;2022-11-20T13:50:59;10.40;;;5.37;;
6109;SDS011;3085;49.444;11.054;2022-11-20T13:53:35;8.70;;;4.53;;
6109;SDS011;3085;49.444;11.054;2022-11-20T13:56:39;7.93;;;4.23;;
6109;SDS011;3085;49.444;11.054;2022-11-20T13:59:25;7.60;;;4.03;;
6109;SDS011;3085;49.444;11.054;2022-11-20T14:02:02;7.73;;;4.27;;
6109;SDS011;3085;49.444;11.054;2022-11-20T14:04:30;6.33;;;4.10;;
6109;SDS011;3085;49.444;11.054;2022-11-20T14:07:03;7.97;;;4.83;;
6109;SDS011;3085;49.444;11.054;2022-11-20T14:09:32;9.77;;;4.40;;
6109;SDS011;3085;49.444;11.054;2022-11-20T14:12:00;8.40;;;3.67;;
6109;SDS011;3085;49.444;11.054;2022-11-20T14:14:29;12.10;;;4.30;;
6109;SDS011;3085;49.444;11.054;2022-11-20T14:17:04;5.27;;;4.07;;
6109;SDS011;3085;49.444;11.054;2022-11-20T14:19:33;6.90;;;3.70;;
6109;SDS011;3085;49.444;11.054;2022-11-20T14:22:10;7.87;;;4.43;;
6109;SDS011;3085;49.444;11.054;2022-11-20T14:24:44;7.20;;;4.00;;
6109;SDS011;3085;49.444;11.054;2022-11-20T14:27:12;6.70;;;3.70;;
6109;SDS011;3085;49.444;11.054;2022-11-20T14:29:40;9.40;;;4.50;;
6109;SDS011;3085;49.444;11.054;2022-11-20T14:32:08;8.50;;;4.67;;
6109;SDS011;3085;49.444;11.054;2022-11-20T14:34:38;6.90;;;3.70;;
6109;SDS011;3085;49.444;11.054;2022-11-20T14:37:11;8.43;;;4.27;;
6109;SDS011;3085;49.444;11.054;2022-11-20T14:39:48;7.73;;;3.50;;
6109;SDS011;3085;49.444;11.054;2022-11-20T14:42:17;10.50;;;5.20;;
6109;SDS011;3085;49.444;11.054;2022-11-20T14:44:46;9.20;;;4.10;;
6109;SDS011;3085;49.444;11.054;2022-11-20T14:47:15;9.97;;;4.67;;
6109;SDS011;3085;49.444;11.054;2022-11-20T14:49:45;6.20;;;3.57;;
6109;SDS011;3085;49.444;11.054;2022-11-20T14:52:15;12.10;;;4.10;;
6109;SDS011;3085;49.444;11.054;2022-11-20T14:54:44;14.27;;;4.70;;
6109;SDS011;3085;49.444;11.054;2022-11-20T14:57:20;9.33;;;4.07;;
6109;SDS011;3085;49.444;11.054;2022-11-20T14:59:49;7.63;;;4.10;;
6109;SDS011;3085;49.444;11.054;2022-11-20T15:02:16;9.57;;;4.17;;
6109;SDS011;3085;49.444;11.054;2022-11-20T15:04:46;11.70;;;4.93;;
6109;SDS011;3085;49.444;11.054;2022-11-20T15:07:24;8.30;;;4.03;;
6109;SDS011;3085;49.444;11.054;2022-11-20T15:09:59;6.90;;;3.90;;
6109;SDS011;3085;49.444;11.054;2022-11-20T15:12:30;5.93;;;3.80;;
6109;SDS011;3085;49.444;11.054;2022-11-20T15:14:58;8.87;;;4.33;;
6109;SDS011;3085;49.444;11.054;2022-11-20T15:17:26;6.33;;;4.00;;
6109;SDS011;3085;49.444;11.054;2022-11-20T15:19:53;9.90;;;4.97;;
6109;SDS011;3085;49.444;11.054;2022-11-20T15:22:21;16.10;;;4.23;;